createdAt,value
2023-01-10T00:00:38.421Z,1.20
2023-01-10T00:05:40.186Z,1.03
2023-01-10T00:10:41.429Z,1.30
2023-01-10T00:15:43.050Z,1.13
2023-01-10T00:20:46.997Z,1.00
2023-01-10T00:25:48.303Z,1.10
2023-01-10T00:31:01.392Z,1.40
2023-01-10T00:36:04.382Z,1.20
2023-01-10T00:41:28.454Z,1.00
2023-01-10T00:46:30.742Z,1.20
2023-01-10T00:51:32.054Z,0.85
2023-01-10T00:56:33.375Z,0.87
2023-01-10T01:01:34.774Z,0.80
2023-01-10T01:06:36.074Z,0.85
2023-01-10T01:11:37.405Z,1.20
2023-01-10T01:16:38.764Z,1.20
2023-01-10T01:21:39.999Z,1.30
2023-01-10T01:26:42.682Z,1.10
2023-01-10T01:31:44.066Z,1.08
2023-01-10T01:36:47.105Z,1.20
2023-01-10T01:41:57.361Z,1.10
2023-01-10T01:47:03.503Z,1.30
2023-01-10T01:52:08.480Z,1.20
2023-01-10T01:57:12.902Z,1.00
2023-01-10T02:02:17.094Z,1.00
2023-01-10T02:07:18.549Z,0.80
2023-01-10T02:12:19.786Z,0.80
2023-01-10T02:17:21.036Z,0.80
2023-01-10T02:22:42.095Z,0.80
2023-01-10T02:28:10.738Z,0.70
2023-01-10T02:33:22.708Z,0.80
2023-01-10T02:38:32.115Z,1.10
2023-01-10T02:43:42.012Z,0.85
2023-01-10T02:48:43.616Z,0.77
2023-01-10T02:53:47.327Z,0.80
2023-01-10T02:58:54.710Z,0.73
2023-01-10T03:04:05.077Z,0.70
2023-01-10T03:09:26.560Z,0.82
2023-01-10T03:14:28.810Z,1.55
2023-01-10T03:19:32.913Z,0.80
2023-01-10T03:24:36.161Z,0.80
2023-01-10T03:29:42.299Z,1.03
2023-01-10T03:34:43.926Z,1.10
2023-01-10T03:39:51.802Z,0.90
2023-01-10T03:44:58.460Z,1.30
2023-01-10T03:50:02.384Z,1.33
2023-01-10T03:55:05.323Z,1.10
2023-01-10T04:00:06.873Z,1.33
2023-01-10T04:05:08.562Z,1.60
2023-01-10T04:10:10.140Z,1.30
2023-01-10T04:15:11.453Z,1.33
2023-01-10T04:20:12.762Z,1.70
2023-01-10T04:25:14.109Z,1.40
2023-01-10T04:30:15.533Z,1.70
2023-01-10T04:35:16.770Z,1.37
2023-01-10T04:40:19.656Z,1.70
2023-01-10T04:45:21.845Z,1.93
2023-01-10T04:50:23.685Z,1.70
2023-01-10T04:55:25.017Z,1.90
2023-01-10T05:00:26.407Z,2.20
2023-01-10T05:05:28.446Z,1.40
2023-01-10T05:10:29.717Z,1.60
2023-01-10T05:15:31.004Z,1.77
2023-01-10T05:20:32.312Z,1.70
2023-01-10T05:25:33.762Z,1.70
2023-01-10T05:30:35.137Z,3.38
2023-01-10T05:35:36.383Z,1.60
2023-01-10T05:40:37.609Z,1.75
2023-01-10T05:45:38.925Z,2.47
2023-01-10T05:50:40.652Z,2.07
2023-01-10T05:55:42.141Z,1.88
2023-01-10T06:00:43.451Z,1.90
2023-01-10T06:05:45.400Z,1.45
2023-01-10T06:10:47.537Z,2.78
2023-01-10T06:15:49.229Z,1.33
2023-01-10T06:20:50.532Z,2.05
2023-01-10T06:25:51.785Z,2.03
2023-01-10T06:30:53.080Z,2.10
2023-01-10T06:35:54.419Z,1.85
2023-01-10T06:40:55.692Z,2.03
2023-01-10T06:45:56.988Z,1.63
2023-01-10T06:50:58.273Z,1.97
2023-01-10T06:55:59.559Z,1.77
2023-01-10T07:01:01.072Z,2.28
2023-01-10T07:06:02.753Z,1.70
2023-01-10T07:11:04.147Z,1.67
2023-01-10T07:16:06.806Z,2.33
2023-01-10T07:21:08.714Z,2.03
2023-01-10T07:26:11.160Z,2.35
2023-01-10T07:31:13.600Z,2.00
2023-01-10T07:36:15.291Z,1.83
2023-01-10T07:41:16.564Z,1.77
2023-01-10T07:46:17.906Z,2.13
2023-01-10T07:51:19.173Z,2.25
2023-01-10T07:56:20.477Z,2.10
2023-01-10T08:01:21.952Z,2.70
2023-01-10T08:06:23.254Z,2.10
2023-01-10T08:11:24.528Z,2.47
2023-01-10T08:16:25.844Z,2.40
2023-01-10T08:21:27.291Z,2.40
2023-01-10T08:26:28.557Z,3.17
2023-01-10T08:31:29.791Z,2.20
2023-01-10T08:36:31.022Z,2.60
2023-01-10T08:41:32.278Z,2.60
2023-01-10T08:46:33.689Z,2.23
2023-01-10T08:51:34.990Z,2.40
2023-01-10T08:56:37.322Z,1.90
2023-01-10T09:01:38.654Z,2.53
2023-01-10T09:06:39.963Z,3.20
2023-01-10T09:11:41.988Z,3.37
2023-01-10T09:16:43.353Z,2.55
2023-01-10T09:21:44.570Z,2.47
2023-01-10T09:26:45.860Z,2.42
2023-01-10T09:31:47.155Z,1.73
2023-01-10T09:36:48.511Z,1.63
2023-01-10T09:42:08.562Z,1.35
2023-01-10T09:47:34.022Z,1.70
2023-01-10T09:52:40.410Z,1.63
2023-01-10T09:57:41.718Z,1.85
2023-01-10T10:02:45.322Z,2.50
2023-01-10T10:07:50.841Z,1.52
2023-01-10T10:12:52.081Z,1.37
2023-01-10T10:18:16.835Z,1.20
2023-01-10T10:23:18.057Z,1.63
2023-01-10T10:28:41.195Z,1.50
2023-01-10T10:33:48.961Z,1.50
2023-01-10T10:38:51.364Z,1.30
2023-01-10T10:43:54.188Z,1.20
2023-01-10T10:49:13.528Z,1.88
2023-01-10T10:54:16.426Z,1.50
2023-01-10T10:59:19.244Z,1.95
2023-01-10T11:04:22.055Z,1.43
2023-01-10T11:09:34.768Z,1.40
2023-01-10T11:14:47.091Z,1.65
2023-01-10T11:19:55.213Z,1.60
2023-01-10T11:25:01.372Z,1.95
2023-01-10T11:30:06.831Z,1.30
2023-01-10T11:35:15.624Z,1.55
2023-01-10T11:40:23.751Z,2.65
2023-01-10T11:45:27.518Z,7.50
2023-01-10T11:50:29.942Z,2.42
2023-01-10T11:55:32.431Z,1.50
2023-01-10T12:00:36.242Z,1.40
2023-01-10T12:05:37.831Z,1.50
2023-01-10T12:10:39.179Z,1.63
2023-01-10T12:15:40.573Z,1.92
2023-01-10T12:20:46.288Z,1.57
2023-01-10T12:25:47.855Z,1.13
2023-01-10T12:30:52.848Z,1.60
2023-01-10T12:35:54.090Z,1.67
2023-01-10T12:40:59.901Z,1.98
2023-01-10T12:46:21.146Z,1.77
2023-01-10T12:51:26.556Z,1.45
2023-01-10T12:56:27.993Z,1.40
2023-01-10T13:01:31.312Z,1.10
2023-01-10T13:06:39.537Z,1.65
2023-01-10T13:11:45.504Z,2.67
2023-01-10T13:16:51.185Z,1.23
2023-01-10T13:22:12.481Z,4.30
2023-01-10T13:27:19.981Z,3.33
2023-01-10T13:32:29.268Z,1.58
2023-01-10T13:37:34.052Z,1.30
2023-01-10T13:42:54.886Z,1.70
2023-01-10T13:47:56.909Z,1.52
2023-01-10T13:53:01.359Z,1.07
2023-01-10T13:58:43.841Z,1.35
2023-01-10T14:03:53.377Z,2.40
2023-01-10T14:08:57.513Z,1.27
2023-01-10T14:14:00.522Z,1.60
2023-01-10T14:19:03.412Z,2.07
2023-01-10T14:24:04.916Z,1.67
2023-01-10T14:29:08.651Z,1.73
2023-01-10T14:34:11.883Z,2.83
2023-01-10T14:39:15.173Z,2.60
2023-01-10T14:44:23.853Z,2.70
2023-01-10T14:49:25.146Z,3.95
2023-01-10T14:54:26.768Z,2.50
2023-01-10T14:59:34.210Z,1.70
2023-01-10T15:04:36.235Z,6.68
2023-01-10T15:09:53.483Z,14.77
2023-01-10T15:14:58.213Z,19.02
2023-01-10T15:19:59.533Z,10.27
2023-01-10T15:25:21.055Z,9.02
2023-01-10T15:30:23.778Z,6.63
2023-01-10T15:35:35.239Z,3.87
2023-01-10T15:40:38.229Z,3.20
2023-01-10T15:45:40.040Z,2.20
2023-01-10T15:50:53.218Z,2.05
2023-01-10T15:55:56.047Z,2.10
2023-01-10T16:00:58.798Z,2.20
2023-01-10T16:06:00.586Z,2.92
2023-01-10T16:11:03.868Z,2.60
2023-01-10T16:16:08.310Z,2.38
2023-01-10T16:21:11.507Z,3.42
2023-01-10T16:26:12.981Z,5.07
2023-01-10T16:31:14.650Z,5.15
2023-01-10T16:36:17.490Z,5.57
2023-01-10T16:41:37.334Z,4.13
2023-01-10T16:46:38.628Z,6.60
2023-01-10T16:51:39.931Z,5.00
2023-01-10T16:56:41.900Z,7.40
2023-01-10T17:01:46.431Z,11.40
2023-01-10T17:06:48.019Z,6.70
2023-01-10T17:11:50.527Z,4.45
2023-01-10T17:16:52.463Z,6.27
2023-01-10T17:21:53.857Z,5.05
2023-01-10T17:26:55.162Z,4.27
2023-01-10T17:31:56.440Z,4.82
2023-01-10T17:36:57.702Z,4.15
2023-01-10T17:41:59.703Z,4.97
2023-01-10T17:47:02.406Z,12.43
2023-01-10T17:52:03.801Z,19.37
2023-01-10T17:57:05.315Z,5.32
2023-01-10T18:02:08.014Z,3.70
2023-01-10T18:07:10.791Z,4.97
2023-01-10T18:12:13.170Z,5.20
2023-01-10T18:17:14.468Z,7.53
2023-01-10T18:22:34.555Z,5.53
2023-01-10T18:27:36.387Z,6.20
2023-01-10T18:32:37.797Z,7.73
2023-01-10T18:37:39.207Z,7.90
2023-01-10T18:42:40.651Z,6.13
2023-01-10T18:47:41.893Z,9.40
2023-01-10T18:52:43.163Z,8.88
2023-01-10T18:57:44.445Z,9.43
2023-01-10T19:02:46.041Z,5.90
2023-01-10T19:07:47.768Z,4.40
2023-01-10T19:12:49.015Z,3.90
2023-01-10T19:17:50.301Z,4.57
2023-01-10T19:22:51.579Z,4.37
2023-01-10T19:27:52.846Z,4.15
2023-01-10T19:32:54.636Z,4.13
2023-01-10T19:37:55.891Z,7.72
2023-01-10T19:42:57.268Z,7.25
2023-01-10T19:47:58.535Z,7.27
2023-01-10T19:52:59.782Z,5.05
2023-01-10T19:58:01.436Z,4.90
2023-01-10T20:03:04.874Z,4.22
2023-01-10T20:08:06.280Z,3.38
2023-01-10T20:13:10.121Z,3.40
2023-01-10T20:18:11.769Z,5.30
2023-01-10T20:23:13.076Z,6.03
2023-01-10T20:28:14.389Z,6.07
2023-01-10T20:33:15.707Z,6.45
2023-01-10T20:38:19.507Z,7.37
2023-01-10T20:43:20.803Z,4.43
2023-01-10T20:48:22.553Z,3.93
2023-01-10T20:53:23.792Z,4.32
2023-01-10T20:58:25.031Z,3.70
2023-01-10T21:03:26.378Z,5.00
2023-01-10T21:08:29.570Z,4.85
2023-01-10T21:13:31.722Z,4.07
2023-01-10T21:18:46.050Z,3.25
2023-01-10T21:23:47.364Z,3.35
2023-01-10T21:28:48.660Z,4.00
2023-01-10T21:33:50.000Z,3.88
2023-01-10T21:38:52.581Z,4.50
2023-01-10T21:43:53.916Z,4.78
2023-01-10T21:48:55.243Z,8.35
2023-01-10T21:53:56.535Z,7.40
2023-01-10T21:58:57.782Z,6.70
2023-01-10T22:03:59.070Z,4.90
2023-01-10T22:09:00.436Z,4.60
2023-01-10T22:14:01.740Z,4.22
2023-01-10T22:19:03.027Z,4.73
2023-01-10T22:24:04.703Z,5.50
2023-01-10T22:29:05.968Z,5.40
2023-01-10T22:34:07.422Z,7.32
2023-01-10T22:39:09.075Z,6.30
2023-01-10T22:44:16.856Z,6.03
2023-01-10T22:49:18.448Z,6.35
2023-01-10T22:54:19.864Z,5.30
2023-01-10T22:59:21.191Z,5.20
2023-01-10T23:04:22.667Z,6.20
2023-01-10T23:09:24.050Z,5.80
2023-01-10T23:14:25.331Z,5.97
2023-01-10T23:19:26.673Z,5.00
2023-01-10T23:24:27.945Z,4.65
2023-01-10T23:29:29.198Z,4.70
2023-01-10T23:34:30.513Z,3.70
2023-01-10T23:39:31.804Z,3.58
2023-01-10T23:44:33.609Z,3.33
2023-01-10T23:49:34.938Z,3.38
2023-01-10T23:54:36.406Z,3.38
2023-01-10T23:59:37.704Z,3.33
